Time;durP1;ratioP1;P1;durP2;ratioP2;P2;SDS_P1;SDS_P2;PMS_P1;PMS_P2;Temp;Humidity;BMP_temperature;BMP_pressure;BME280_temperature;BME280_humidity;BME280_pressure;Samples;Min_cycle;Max_cycle;Signal;HPM_P1;HPM_P2
2023/07/27 00:01:42;;;;;;;7.97;4.10;;;;;;;14.75;76.65;100986.53;6188647;23;20014;-76
2023/07/27 00:04:09;;;;;;;5.32;4.00;;;;;;;14.75;76.43;100981.19;6188501;23;20032;-76
2023/07/27 00:06:36;;;;;;;4.80;4.30;;;;;;;14.77;77.07;100989.50;6188454;23;20080;-76
2023/07/27 00:09:02;;;;;;;5.05;4.25;;;;;;;14.77;77.35;100979.53;6162925;23;20407;-76
2023/07/27 00:11:29;;;;;;;4.93;4.13;;;;;;;14.80;77.36;100977.84;6188426;23;20025;-76
2023/07/27 00:13:55;;;;;;;9.63;4.45;;;;;;;14.81;77.18;100976.63;6189006;23;20021;-76
2023/07/27 00:16:22;;;;;;;4.95;4.45;;;;;;;14.82;77.81;100973.50;6188260;23;20049;-76
2023/07/27 00:18:49;;;;;;;5.35;4.50;;;;;;;14.82;77.71;100973.50;6188432;23;20122;-77
2023/07/27 00:21:15;;;;;;;6.22;4.00;;;;;;;14.84;77.45;100970.34;6162392;23;20035;-77
2023/07/27 00:23:42;;;;;;;6.57;4.22;;;;;;;14.84;77.76;100971.09;6188249;23;20017;-76
2023/07/27 00:26:08;;;;;;;5.55;4.80;;;;;;;14.87;78.02;100972.84;6189403;23;20076;-76
2023/07/27 00:28:35;;;;;;;4.97;4.50;;;;;;;14.88;77.18;100970.91;6156358;23;20018;-76
2023/07/27 00:31:01;;;;;;;4.97;4.05;;;;;;;14.90;77.57;100968.50;6156990;23;20029;-76
2023/07/27 00:33:28;;;;;;;4.78;4.40;;;;;;;14.88;77.28;100965.53;6156059;23;20189;-76
2023/07/27 00:35:56;;;;;;;10.27;4.85;;;;;;;14.90;77.37;100965.81;6132905;23;20053;-76
2023/07/27 00:38:26;;;;;;;7.30;4.50;;;;;;;14.90;77.90;100965.81;6158614;23;20014;-76
2023/07/27 00:40:52;;;;;;;5.40;4.43;;;;;;;14.89;78.20;100967.03;6158990;23;20452;-77
2023/07/27 00:43:19;;;;;;;5.22;4.72;;;;;;;14.88;79.90;100962.88;6156661;23;20022;-76
2023/07/27 00:45:52;;;;;;;5.68;5.07;;;;;;;14.88;80.61;100970.91;6159154;23;20467;-76
2023/07/27 00:48:19;;;;;;;7.13;4.85;;;;;;;14.84;82.59;100967.66;6158064;23;20548;-76
2023/07/27 00:50:46;;;;;;;5.25;4.82;;;;;;;14.81;83.06;100965.91;6157450;23;20049;-76
2023/07/27 00:53:15;;;;;;;6.93;5.45;;;;;;;14.75;84.11;100968.53;6159290;23;20567;-76
2023/07/27 00:55:43;;;;;;;6.32;4.75;;;;;;;14.74;84.67;100963.63;6158562;23;20037;-76
2023/07/27 00:58:10;;;;;;;6.75;5.15;;;;;;;14.70;85.40;100966.50;6159354;23;20018;-76
2023/07/27 01:00:40;;;;;;;5.95;5.30;;;;;;;14.66;86.87;100958.63;6156320;23;20446;-77
2023/07/27 01:03:06;;;;;;;5.18;4.68;;;;;;;14.60;87.92;100946.34;6156606;23;20452;-77
2023/07/27 01:05:34;;;;;;;7.15;5.28;;;;;;;14.58;89.87;100952.16;6156856;23;20474;-76
2023/07/27 01:08:00;;;;;;;7.65;5.45;;;;;;;14.53;91.05;100947.44;6157581;23;20018;-78
2023/07/27 01:10:59;;;;;;;5.70;5.13;;;;;;;14.46;91.75;100949.75;6158370;23;20022;-76
2023/07/27 01:13:33;;;;;;;5.78;5.20;;;;;;;14.42;93.13;100936.53;6158229;23;20026;-77
2023/07/27 01:16:08;;;;;;;6.00;5.28;;;;;;;14.38;94.35;100944.00;6158429;23;20077;-77
2023/07/27 01:18:55;;;;;;;6.15;5.13;;;;;;;14.32;94.44;100938.53;6132310;23;20101;-77
2023/07/27 01:21:30;;;;;;;6.15;4.82;;;;;;;14.33;96.54;100932.00;6112678;23;20058;-77
2023/07/27 01:24:27;;;;;;;5.00;4.50;;;;;;;14.33;97.20;100933.94;6157501;23;20018;-77
2023/07/27 01:27:06;;;;;;;6.13;4.80;;;;;;;14.34;98.30;100919.34;6159036;23;20014;-76
2023/07/27 01:29:45;;;;;;;7.00;5.07;;;;;;;14.33;98.73;100915.19;6177980;23;20080;-76
2023/07/27 01:32:15;;;;;;;5.43;4.50;;;;;;;14.29;100.00;100917.31;6161689;23;20040;-76
2023/07/27 01:34:46;;;;;;;5.07;4.25;;;;;;;14.27;100.00;100923.13;6161326;23;20026;-75
2023/07/27 01:37:16;;;;;;;4.65;4.25;;;;;;;14.24;100.00;100913.31;6188890;23;20090;-76
2023/07/27 01:39:47;;;;;;;6.25;4.70;;;;;;;14.23;100.00;100905.75;6188682;23;20045;-76
2023/07/27 01:42:17;;;;;;;5.75;4.35;;;;;;;14.24;100.00;100902.63;6162348;23;20249;-76
2023/07/27 01:44:45;;;;;;;4.43;3.97;;;;;;;14.21;100.00;100902.78;6162358;23;20025;-76
2023/07/27 01:47:13;;;;;;;4.95;4.47;;;;;;;14.17;100.00;100888.84;6138837;23;20018;-75
2023/07/27 01:49:42;;;;;;;4.35;3.88;;;;;;;14.17;100.00;100886.91;6189496;23;20045;-76
2023/07/27 01:52:11;;;;;;;6.93;4.07;;;;;;;14.19;100.00;100881.84;6163041;23;20104;-76
2023/07/27 01:54:39;;;;;;;4.60;4.03;;;;;;;14.16;100.00;100882.00;6162492;23;20427;-76
2023/07/27 01:57:08;;;;;;;5.03;4.20;;;;;;;14.16;100.00;100884.69;6138941;23;20017;-76
2023/07/27 01:59:37;;;;;;;4.75;4.25;;;;;;;14.17;100.00;100880.81;6137398;23;20092;-76
2023/07/27 02:02:05;;;;;;;5.32;4.10;;;;;;;14.14;100.00;100877.13;6163018;23;20444;-76
2023/07/27 02:04:33;;;;;;;6.15;3.70;;;;;;;14.13;100.00;100870.28;6189165;23;20022;-76
2023/07/27 02:06:59;;;;;;;5.97;3.95;;;;;;;14.13;100.00;100872.22;6190015;23;20020;-76
2023/07/27 02:09:26;;;;;;;5.72;3.67;;;;;;;14.11;100.00;100858.56;6189053;23;20022;-76
2023/07/27 02:11:59;;;;;;;5.57;3.50;;;;;;;14.11;100.00;100859.28;6189866;23;20025;-76
2023/07/27 02:14:43;;;;;;;3.45;3.15;;;;;;;14.09;100.00;100855.59;6188606;23;20452;-76
2023/07/27 02:17:20;;;;;;;3.28;3.03;;;;;;;14.07;100.00;100850.72;6190062;23;20101;-76
2023/07/27 02:19:51;;;;;;;4.53;3.17;;;;;;;14.05;100.00;100838.97;6190015;23;20506;-76
2023/07/27 02:22:19;;;;;;;3.47;3.17;;;;;;;14.01;100.00;100842.56;6163049;23;20037;-76
2023/07/27 02:24:46;;;;;;;4.07;3.30;;;;;;;14.03;100.00;100842.13;6163107;23;20022;-77
2023/07/27 02:27:13;;;;;;;3.65;3.33;;;;;;;14.03;100.00;100832.16;6162756;23;20061;-74
2023/07/27 02:29:40;;;;;;;4.05;3.67;;;;;;;14.03;100.00;100831.41;6156585;23;20026;-75
2023/07/27 02:32:07;;;;;;;3.90;3.60;;;;;;;14.05;100.00;100826.34;6159800;23;20022;-75
2023/07/27 02:34:34;;;;;;;3.70;3.40;;;;;;;14.06;100.00;100827.81;6157539;23;20551;-75
2023/07/27 02:37:00;;;;;;;5.15;3.20;;;;;;;14.06;100.00;100817.09;6158050;23;20060;-76
2023/07/27 02:39:27;;;;;;;3.70;3.40;;;;;;;14.08;100.00;100811.28;6157307;23;20482;-75
2023/07/27 02:41:53;;;;;;;4.18;3.72;;;;;;;14.07;100.00;100809.81;6159873;23;20014;-76
2023/07/27 02:44:20;;;;;;;6.95;3.35;;;;;;;14.07;100.00;100809.81;6156779;23;20018;-76
2023/07/27 02:46:47;;;;;;;3.85;3.55;;;;;;;14.04;100.00;100798.09;6159635;23;20495;-76
2023/07/27 02:49:14;;;;;;;3.90;3.47;;;;;;;14.02;100.00;100790.53;6158199;23;20564;-76
2023/07/27 02:51:42;;;;;;;3.78;3.40;;;;;;;14.01;100.00;100788.31;6157126;23;20026;-76
2023/07/27 02:54:08;;;;;;;4.38;3.80;;;;;;;13.97;100.00;100777.81;6159467;23;20024;-76
2023/07/27 02:56:35;;;;;;;4.55;3.33;;;;;;;13.97;100.00;100771.72;6157389;23;20022;-76
2023/07/27 02:59:02;;;;;;;4.00;3.63;;;;;;;13.96;100.00;100770.97;6133066;23;20022;-76
2023/07/27 03:01:33;;;;;;;;;;;;;;;13.96;100.00;100764.88;6159346;23;20471;-76
2023/07/27 03:04:04;;;;;;;5.95;3.30;;;;;;;13.98;100.00;100757.13;6158229;23;19937;-76
2023/07/27 03:06:30;;;;;;;3.83;3.53;;;;;;;13.97;100.00;100755.66;6157473;23;20475;-77
2023/07/27 03:09:01;;;;;;;4.28;3.50;;;;;;;13.98;100.00;100752.53;6157842;23;20105;-76
2023/07/27 03:11:29;;;;;;;5.28;3.67;;;;;;;13.98;100.00;100743.75;6156323;23;20046;-75
2023/07/27 03:13:58;;;;;;;4.55;3.80;;;;;;;13.99;100.00;100742.56;6157688;23;20022;-76
2023/07/27 03:16:25;;;;;;;4.25;3.90;;;;;;;14.00;100.00;100738.66;6157151;23;20081;-75
2023/07/27 03:18:51;;;;;;;3.78;3.47;;;;;;;13.98;100.00;100749.13;6158002;23;20733;-75
2023/07/27 03:21:18;;;;;;;5.13;3.58;;;;;;;13.99;100.00;100737.91;6159221;23;20014;-76
2023/07/27 03:23:47;;;;;;;3.80;3.50;;;;;;;13.96;100.00;100727.44;6158004;23;20025;-75
2023/07/27 03:26:14;;;;;;;3.67;3.38;;;;;;;13.95;100.00;100723.28;6157341;23;20081;-76
2023/07/27 03:28:42;;;;;;;4.00;3.70;;;;;;;13.93;100.00;100712.28;6168490;23;20060;-75
2023/07/27 03:31:26;;;;;;;3.28;3.08;;;;;;;13.95;100.00;100712.56;6189506;23;20014;-75
2023/07/27 03:33:53;;;;;;;3.20;3.00;;;;;;;13.94;100.00;100700.38;6163090;23;20026;-76
2023/07/27 03:36:20;;;;;;;3.78;3.53;;;;;;;13.96;100.00;100684.59;6162190;23;20022;-76
2023/07/27 03:38:47;;;;;;;3.58;3.38;;;;;;;13.96;100.00;100679.25;6162526;23;20037;-76
2023/07/27 03:41:14;;;;;;;4.13;3.72;;;;;;;13.92;100.00;100668.72;6188938;23;20013;-76
2023/07/27 03:43:41;;;;;;;3.88;3.58;;;;;;;13.92;100.00;100674.09;6188994;23;20021;-76
2023/07/27 03:46:08;;;;;;;4.35;4.07;;;;;;;13.92;100.00;100663.38;6162989;23;20022;-76
2023/07/27 03:48:34;;;;;;;4.15;3.85;;;;;;;13.93;100.00;100664.13;6188728;23;20013;-75
2023/07/27 03:51:02;;;;;;;4.72;4.43;;;;;;;13.92;100.00;100670.69;6162905;23;20013;-76
2023/07/27 03:53:30;;;;;;;4.60;4.30;;;;;;;13.91;100.00;100663.84;6162022;23;20055;-75
2023/07/27 03:55:57;;;;;;;4.85;4.40;;;;;;;13.91;100.00;100659.22;6162074;23;20021;-75
2023/07/27 03:58:23;;;;;;;4.63;4.32;;;;;;;13.91;100.00;100656.56;6161737;23;20049;-76
2023/07/27 04:00:50;;;;;;;5.00;4.70;;;;;;;13.91;100.00;100656.56;6138105;23;20022;-75
2023/07/27 04:03:17;;;;;;;6.05;5.13;;;;;;;13.93;100.00;100645.38;6162528;23;20021;-75
2023/07/27 04:05:44;;;;;;;6.85;6.25;;;;;;;13.91;100.00;100635.16;6162600;23;20022;-76
2023/07/27 04:08:10;;;;;;;7.15;6.22;;;;;;;13.88;100.00;100630.00;6138018;23;20028;-75
2023/07/27 04:10:39;;;;;;;8.10;6.80;;;;;;;13.87;100.00;100629.25;6161310;23;20841;-75
2023/07/27 04:13:06;;;;;;;8.00;7.15;;;;;;;13.86;100.00;100621.69;6189391;23;20025;-76
2023/07/27 04:15:33;;;;;;;10.90;8.43;;;;;;;13.85;100.00;100614.84;6162180;23;20041;-76
2023/07/27 04:18:00;;;;;;;10.52;8.95;;;;;;;13.83;100.00;100609.22;6162590;23;20038;-75
2023/07/27 04:20:26;;;;;;;11.50;9.00;;;;;;;13.81;100.00;100612.38;6188736;23;20467;-75
2023/07/27 04:22:53;;;;;;;12.98;10.02;;;;;;;13.82;100.00;100605.09;6189523;23;20064;-75
2023/07/27 04:25:19;;;;;;;13.52;9.70;;;;;;;13.80;100.00;100602.13;6188028;23;20017;-75
2023/07/27 04:27:46;;;;;;;12.60;9.63;;;;;;;13.79;100.00;100601.41;6162658;23;20017;-75
2023/07/27 04:30:13;;;;;;;13.75;10.50;;;;;;;13.80;100.00;100594.09;6157558;23;20093;-75
2023/07/27 04:32:39;;;;;;;13.68;9.88;;;;;;;13.79;100.00;100592.63;6158640;23;20036;-75
2023/07/27 04:35:06;;;;;;;15.50;10.63;;;;;;;13.77;100.00;100593.09;6159586;23;20018;-75
2023/07/27 04:37:33;;;;;;;15.77;11.32;;;;;;;13.76;100.00;100588.94;6156746;23;20018;-75
2023/07/27 04:40:02;;;;;;;12.95;10.40;;;;;;;13.77;100.00;100587.00;6158845;23;20069;-74
2023/07/27 04:42:28;;;;;;;13.68;11.35;;;;;;;13.78;100.00;100588.47;6158394;23;20511;-74
2023/07/27 04:44:55;;;;;;;14.75;10.95;;;;;;;13.77;100.00;100593.09;6157506;23;20077;-74
2023/07/27 04:47:24;;;;;;;19.45;10.57;;;;;;;13.75;100.00;100582.13;6158493;23;20420;-74
2023/07/27 04:49:51;;;;;;;12.93;10.63;;;;;;;13.76;100.00;100580.19;6157637;23;20018;-74
2023/07/27 04:52:17;;;;;;;13.45;10.15;;;;;;;13.76;100.00;100574.84;6158654;23;20456;-74
2023/07/27 04:54:44;;;;;;;13.50;10.18;;;;;;;13.74;100.00;100572.63;6158300;23;20014;-74
2023/07/27 04:57:10;;;;;;;13.10;9.95;;;;;;;13.76;100.00;100569.47;6159157;23;20226;-75
2023/07/27 04:59:37;;;;;;;13.20;9.32;;;;;;;13.78;100.00;100567.09;6156556;23;20345;-74
2023/07/27 05:02:03;;;;;;;9.40;8.40;;;;;;;13.79;100.00;100555.19;6157383;23;20026;-74
2023/07/27 05:04:30;;;;;;;12.63;8.38;;;;;;;13.81;100.00;100547.41;6156902;23;20017;-75
2023/07/27 05:06:57;;;;;;;8.82;7.85;;;;;;;13.81;100.00;100544.75;6159447;23;20025;-74
2023/07/27 05:09:23;;;;;;;9.35;8.02;;;;;;;13.81;100.00;100540.13;6157324;23;20090;-75
2023/07/27 05:11:50;;;;;;;9.85;7.85;;;;;;;13.82;100.00;100543.53;6159204;23;20412;-75
2023/07/27 05:14:16;;;;;;;9.02;7.80;;;;;;;13.83;100.00;100535.06;6159299;23;20025;-75
2023/07/27 05:16:43;;;;;;;8.35;7.47;;;;;;;13.83;100.00;100537.00;6132284;23;20442;-75
2023/07/27 05:19:10;;;;;;;9.75;7.40;;;;;;;13.85;100.00;100529.25;6156908;23;20464;-75
2023/07/27 05:21:36;;;;;;;8.50;7.70;;;;;;;13.87;100.00;100532.19;6158304;23;20435;-75
2023/07/27 05:24:03;;;;;;;8.18;7.35;;;;;;;13.87;100.00;100522.22;6158711;23;20096;-75
2023/07/27 05:26:30;;;;;;;7.53;6.82;;;;;;;13.88;100.00;100523.69;6158080;23;20018;-75
2023/07/27 05:28:56;;;;;;;7.90;6.43;;;;;;;13.90;100.00;100515.94;6171264;23;20024;-75
2023/07/27 05:31:25;;;;;;;8.27;7.03;;;;;;;13.92;100.00;100515.47;6187771;23;20022;-75
2023/07/27 05:33:52;;;;;;;7.78;6.40;;;;;;;13.92;100.00;100510.84;6188684;23;20013;-75
2023/07/27 05:36:19;;;;;;;7.47;6.78;;;;;;;13.95;100.00;100517.94;6161447;23;20021;-75
2023/07/27 05:38:45;;;;;;;6.43;5.85;;;;;;;13.97;100.00;100512.13;6188001;23;20085;-75
2023/07/27 05:41:12;;;;;;;6.65;6.13;;;;;;;13.98;100.00;100514.34;6188744;23;20448;-75
2023/07/27 05:43:39;;;;;;;6.43;5.82;;;;;;;14.00;100.00;100509.22;6187823;23;20088;-75
2023/07/27 05:46:05;;;;;;;5.82;5.20;;;;;;;14.02;100.00;100511.44;6188706;23;20013;-75
2023/07/27 05:48:33;;;;;;;6.20;5.68;;;;;;;14.03;100.00;100508.28;6187693;23;20470;-75
2023/07/27 05:51:00;;;;;;;5.70;5.18;;;;;;;14.05;100.00;100507.09;6188061;23;20439;-75
2023/07/27 05:53:26;;;;;;;5.32;4.82;;;;;;;14.06;100.00;100509.31;6187732;23;20056;-75
2023/07/27 05:55:53;;;;;;;5.88;4.43;;;;;;;14.09;100.00;100497.66;6188545;23;20555;-75
2023/07/27 05:58:19;;;;;;;4.97;4.53;;;;;;;14.12;100.00;100504.03;6187810;23;20013;-75
2023/07/27 06:00:59;;;;;;;4.90;4.60;;;;;;;14.14;100.00;100494.31;6188376;23;20018;-75
2023/07/27 06:03:30;;;;;;;4.78;4.38;;;;;;;14.16;100.00;100485.81;6187885;23;20055;-75
2023/07/27 06:05:56;;;;;;;4.50;4.20;;;;;;;14.19;100.00;100490.97;6187809;23;20098;-75
2023/07/27 06:08:23;;;;;;;4.82;4.43;;;;;;;14.23;100.00;100477.38;6187443;23;20017;-75
2023/07/27 06:11:06;;;;;;;4.05;3.75;;;;;;;14.26;100.00;100479.84;6188252;23;20021;-76
2023/07/27 06:13:33;;;;;;;4.45;4.15;;;;;;;14.28;100.00;100476.72;6159343;23;20017;-75
2023/07/27 06:16:02;;;;;;;4.32;4.03;;;;;;;14.31;100.00;100475.78;6187801;23;20010;-74
2023/07/27 06:18:28;;;;;;;4.78;4.20;;;;;;;14.33;100.00;100471.41;6187521;23;20033;-75
2023/07/27 06:20:55;;;;;;;4.70;4.13;;;;;;;14.38;100.00;100475.38;6161506;23;20017;-73
2023/07/27 06:23:22;;;;;;;3.85;3.65;;;;;;;14.40;100.00;100462.22;6187763;23;20014;-75
2023/07/27 06:25:49;;;;;;;4.40;4.10;;;;;;;14.42;100.00;100465.19;6188496;23;20021;-76
2023/07/27 06:28:16;;;;;;;4.20;3.95;;;;;;;14.45;100.00;100458.88;6187763;23;20018;-75
2023/07/27 06:30:43;;;;;;;5.43;3.95;;;;;;;14.51;100.00;100464.28;6188951;23;20018;-75
2023/07/27 06:33:09;;;;;;;4.18;3.78;;;;;;;14.54;100.00;100450.69;6189618;23;20021;-75
2023/07/27 06:35:36;;;;;;;4.13;3.83;;;;;;;14.58;100.00;100453.91;6188501;23;20025;-76
2023/07/27 06:38:02;;;;;;;3.65;3.45;;;;;;;14.62;100.00;100456.38;6162707;23;20578;-75
2023/07/27 06:40:29;;;;;;;3.20;3.00;;;;;;;14.64;100.00;100435.94;6188784;23;20077;-76
2023/07/27 06:42:56;;;;;;;3.55;3.28;;;;;;;14.67;100.00;100434.25;6189415;23;20037;-75
2023/07/27 06:45:22;;;;;;;3.35;3.10;;;;;;;14.70;100.00;100433.31;6189041;23;20025;-76
2023/07/27 06:47:49;;;;;;;3.60;3.30;;;;;;;14.76;100.00;100428.75;6162650;23;20018;-76
2023/07/27 06:50:16;;;;;;;3.17;3.00;;;;;;;14.80;100.00;100428.50;6189038;23;20366;-76
2023/07/27 06:52:43;;;;;;;3.70;3.40;;;;;;;14.83;100.00;100425.59;6188942;23;20028;-78
2023/07/27 06:55:10;;;;;;;3.42;3.17;;;;;;;14.85;100.00;100425.13;6137645;23;20085;-77
2023/07/27 06:57:37;;;;;;;3.05;2.85;;;;;;;14.90;100.00;100429.78;6162089;23;20018;-75
2023/07/27 07:00:05;;;;;;;3.38;3.10;;;;;;;14.97;100.00;100424.00;6189419;23;20017;-75
2023/07/27 07:02:32;;;;;;;2.92;2.80;;;;;;;15.02;100.00;100437.44;6188662;23;20451;-77
2023/07/27 07:04:58;;;;;;;2.80;2.60;;;;;;;15.08;100.00;100436.75;6189004;23;20443;-77
2023/07/27 07:07:25;;;;;;;2.78;2.67;;;;;;;15.12;100.00;100426.56;6161853;23;20436;-75
2023/07/27 07:09:52;;;;;;;2.85;2.75;;;;;;;15.17;100.00;100428.53;6189412;23;20408;-75
2023/07/27 07:12:19;;;;;;;2.92;2.72;;;;;;;15.22;100.00;100438.53;6188494;23;20023;-76
2023/07/27 07:14:45;;;;;;;2.75;2.65;;;;;;;15.27;100.00;100440.53;6163045;23;20013;-77
2023/07/27 07:17:12;;;;;;;2.83;2.72;;;;;;;15.29;100.00;100433.47;6189193;23;20052;-76
2023/07/27 07:19:39;;;;;;;3.00;2.80;;;;;;;15.34;100.00;100435.44;6188134;23;20499;-77
2023/07/27 07:22:05;;;;;;;3.35;2.72;;;;;;;15.37;100.00;100427.66;6189190;23;20013;-77
2023/07/27 07:24:32;;;;;;;2.97;2.78;;;;;;;15.41;100.00;100423.53;6188784;23;20092;-77
2023/07/27 07:26:59;;;;;;;3.17;2.80;;;;;;;15.47;100.00;100426.25;6189414;23;20013;-76
2023/07/27 07:29:26;;;;;;;3.25;2.80;;;;;;;15.51;100.00;100422.13;6188065;23;20053;-77
2023/07/27 07:31:53;;;;;;;3.00;2.80;;;;;;;15.55;100.00;100425.34;6138094;23;20526;-77
2023/07/27 07:34:20;;;;;;;2.90;2.80;;;;;;;15.60;100.00;100413.16;6188107;23;20440;-77
2023/07/27 07:36:47;;;;;;;2.72;2.63;;;;;;;15.65;100.00;100418.56;6162779;23;20096;-76
2023/07/27 07:39:14;;;;;;;3.03;2.75;;;;;;;15.73;100.00;100410.78;6163181;23;20029;-77
2023/07/27 07:41:41;;;;;;;2.85;2.65;;;;;;;15.78;100.00;100407.38;6162337;23;20017;-77
2023/07/27 07:44:07;;;;;;;4.88;2.95;;;;;;;15.81;100.00;100403.00;6138090;23;20462;-77
2023/07/27 07:46:34;;;;;;;2.92;2.55;;;;;;;15.86;100.00;100407.66;6188215;23;20013;-77
2023/07/27 07:49:01;;;;;;;3.25;2.47;;;;;;;15.91;100.00;100393.53;6162028;23;20483;-77
2023/07/27 07:51:28;;;;;;;2.72;2.63;;;;;;;15.94;100.00;100392.56;6162055;23;20419;-78
2023/07/27 07:53:54;;;;;;;2.40;2.30;;;;;;;15.96;100.00;100396.22;6162823;23;20045;-78
2023/07/27 07:56:21;;;;;;;2.42;2.33;;;;;;;15.99;100.00;100389.88;6188750;23;20013;-78
2023/07/27 07:58:47;;;;;;;2.97;2.30;;;;;;;16.05;100.00;100379.13;6189277;23;20026;-77
2023/07/27 08:01:14;;;;;;;2.30;2.20;;;;;;;16.11;100.00;100376.47;6189342;23;20418;-77
2023/07/27 08:03:40;;;;;;;2.10;2.00;;;;;;;16.20;100.00;100379.66;6161724;23;20017;-77
2023/07/27 08:06:10;;;;;;;1.80;1.73;;;;;;;16.24;100.00;100369.41;6162936;23;20024;-79
2023/07/27 08:08:37;;;;;;;2.10;2.00;;;;;;;16.27;100.00;100373.09;6162672;23;20519;-75
2023/07/27 08:11:04;;;;;;;2.25;2.15;;;;;;;16.33;100.00;100373.81;6189512;23;20041;-73
2023/07/27 08:13:31;;;;;;;1.83;1.73;;;;;;;16.37;100.00;100368.94;6188432;23;20088;-75
2023/07/27 08:15:58;;;;;;;2.30;2.10;;;;;;;16.43;100.00;100368.91;6162518;23;20013;-75
2023/07/27 08:18:25;;;;;;;1.73;1.63;;;;;;;16.52;100.00;100369.41;6188567;23;20053;-74
2023/07/27 08:21:04;;;;;;;19.92;2.28;;;;;;;16.58;100.00;100372.84;6189613;23;20437;-75
2023/07/27 08:23:31;;;;;;;1.40;1.30;;;;;;;16.62;100.00;100367.94;6189007;23;20045;-75
2023/07/27 08:26:00;;;;;;;2.45;1.08;;;;;;;16.67;100.00;100361.88;6189573;23;20458;-74
2023/07/27 08:28:27;;;;;;;1.20;1.20;;;;;;;16.73;100.00;100366.50;6161648;23;20028;-75
2023/07/27 08:30:54;;;;;;;1.30;1.10;;;;;;;16.80;100.00;100364.03;6162618;23;20017;-78
2023/07/27 08:33:20;;;;;;;1.10;1.10;;;;;;;16.84;100.00;100363.78;6188887;23;20387;-77
2023/07/27 08:35:47;;;;;;;0.98;0.98;;;;;;;16.93;100.00;100358.16;6189187;23;20399;-76
2023/07/27 08:38:14;;;;;;;0.90;0.90;;;;;;;16.98;100.00;100363.53;6189130;23;20022;-75
2023/07/27 08:40:41;;;;;;;0.95;0.95;;;;;;;17.05;100.00;100364.25;6161962;23;20100;-76
2023/07/27 08:43:08;;;;;;;0.93;0.85;;;;;;;17.11;100.00;100368.41;6189349;23;20021;-76
2023/07/27 08:45:36;;;;;;;1.08;1.08;;;;;;;17.12;100.00;100364.47;6188060;23;20013;-77
2023/07/27 08:48:04;;;;;;;0.98;0.98;;;;;;;17.12;100.00;100369.13;6189122;23;20141;-75
2023/07/27 08:50:31;;;;;;;1.10;1.10;;;;;;;17.11;100.00;100373.78;6161803;23;20471;-76
2023/07/27 08:52:58;;;;;;;1.08;1.00;;;;;;;17.12;100.00;100377.19;6137521;23;20053;-76
2023/07/27 08:55:25;;;;;;;1.10;1.10;;;;;;;17.07;100.00;100372.56;6188381;23;20024;-76
2023/07/27 08:57:51;;;;;;;1.05;1.05;;;;;;;17.05;100.00;100377.69;6189186;23;20072;-75
2023/07/27 09:00:18;;;;;;;0.85;0.85;;;;;;;17.04;100.00;100379.66;6187924;23;20018;-75
2023/07/27 09:02:45;;;;;;;0.80;0.80;;;;;;;17.06;100.00;100373.78;6188766;23;20479;-76
2023/07/27 09:05:13;;;;;;;0.82;0.82;;;;;;;17.06;100.00;100373.78;6162261;23;20352;-75
2023/07/27 09:07:39;;;;;;;1.13;1.10;;;;;;;17.11;100.00;100378.41;6162263;23;20021;-76
2023/07/27 09:10:08;;;;;;;1.27;0.80;;;;;;;17.11;100.00;100373.78;6189205;23;20017;-76
2023/07/27 09:12:35;;;;;;;3.15;1.05;;;;;;;17.19;100.00;100376.69;6161376;23;20021;-77
2023/07/27 09:15:15;;;;;;;1.20;1.10;;;;;;;17.26;100.00;100376.16;6188337;23;20022;-76
2023/07/27 09:17:41;;;;;;;0.98;0.98;;;;;;;17.29;100.00;100369.78;6188198;23;20049;-76
2023/07/27 09:20:13;;;;;;;1.10;0.90;;;;;;;17.36;100.00;100371.25;6189091;23;20020;-75
2023/07/27 09:22:42;;;;;;;0.98;0.93;;;;;;;17.39;100.00;100375.63;6188563;23;20013;-76
2023/07/27 09:25:08;;;;;;;0.98;0.98;;;;;;;17.46;100.00;100373.16;6137088;23;20017;-76
2023/07/27 09:27:45;;;;;;;0.68;0.68;;;;;;;17.49;100.00;100374.88;6161605;23;20022;-75
2023/07/27 09:30:16;;;;;;;0.52;0.52;;;;;;;17.45;100.00;100379.03;6187900;23;20057;-76
2023/07/27 09:32:42;;;;;;;0.63;0.63;;;;;;;17.44;100.00;100375.63;6188068;23;20355;-77
2023/07/27 09:35:13;;;;;;;0.50;0.50;;;;;;;17.49;100.00;100382.94;6188683;23;20306;-77
2023/07/27 09:37:45;;;;;;;0.70;0.70;;;;;;;17.47;100.00;100374.63;6188381;23;20022;-76
2023/07/27 09:40:23;;;;;;;0.60;0.60;;;;;;;17.45;100.00;100368.28;6188768;23;20018;-76
2023/07/27 09:42:51;;;;;;;0.70;0.70;;;;;;;17.53;100.00;100364.56;6189292;23;20017;-76
2023/07/27 09:45:19;;;;;;;0.80;0.80;;;;;;;17.66;100.00;100372.09;6188384;23;20424;-76
2023/07/27 09:47:46;;;;;;;0.73;0.73;;;;;;;17.76;100.00;100375.97;6162222;23;20021;-75
2023/07/27 09:50:14;;;;;;;2.97;0.80;;;;;;;17.86;100.00;100371.03;6162491;23;20089;-76
2023/07/27 09:52:41;;;;;;;0.95;0.95;;;;;;;18.01;100.00;100366.03;6187843;23;20072;-76
2023/07/27 09:55:08;;;;;;;0.90;0.90;;;;;;;18.06;100.00;100373.34;6188567;23;20014;-76
2023/07/27 09:57:35;;;;;;;1.00;0.90;;;;;;;18.08;100.00;100370.16;6160794;23;20486;-76
2023/07/27 10:00:06;;;;;;;0.70;0.70;;;;;;;18.05;100.00;100369.19;6188658;23;20018;-76
2023/07/27 10:02:38;;;;;;;0.80;0.80;;;;;;;18.12;100.00;100370.63;6188063;23;20025;-76
2023/07/27 10:05:06;;;;;;;0.90;0.90;;;;;;;18.16;100.00;100374.50;6189163;23;20010;-76
2023/07/27 10:07:35;;;;;;;0.80;0.80;;;;;;;18.16;100.00;100366.44;6162576;23;20022;-76
2023/07/27 10:10:35;;;;;;;0.80;0.80;;;;;;;18.21;100.00;100378.41;6162721;23;20017;-76
2023/07/27 10:13:09;;;;;;;0.95;0.95;;;;;;;18.27;100.00;100373.72;6189545;23;20021;-76
2023/07/27 10:15:41;;;;;;;0.90;0.90;;;;;;;18.35;100.00;100373.91;6189260;23;20017;-75
2023/07/27 10:18:13;;;;;;;1.33;1.10;;;;;;;18.43;100.00;100372.84;6163934;23;20029;-76
2023/07/27 10:20:40;;;;;;;1.70;1.60;;;;;;;18.47;100.00;100375.25;6188980;23;20017;-76
2023/07/27 10:23:20;;;;;;;1.55;1.55;;;;;;;18.43;100.00;100369.41;6163426;23;20017;-76
2023/07/27 10:25:55;;;;;;;1.40;1.40;;;;;;;18.47;100.00;100362.50;6189533;23;20507;-76
2023/07/27 10:28:31;;;;;;;1.38;1.38;;;;;;;18.54;100.00;100363.94;6188556;23;20080;-76
2023/07/27 10:31:13;;;;;;;1.45;1.45;;;;;;;18.59;100.00;100363.88;6189598;23;20013;-77
2023/07/27 10:33:51;;;;;;;1.67;1.58;;;;;;;18.61;100.00;100368.81;6189298;23;20041;-76
2023/07/27 10:36:23;;;;;;;1.58;1.52;;;;;;;18.61;100.00;100364.13;6189150;23;20068;-75
2023/07/27 10:38:53;;;;;;;1.58;1.55;;;;;;;18.66;100.00;100365.34;6189890;23;20479;-75
2023/07/27 10:41:23;;;;;;;1.38;1.27;;;;;;;18.69;100.00;100364.31;6161974;23;20017;-76
2023/07/27 10:44:08;;;;;;;1.42;1.42;;;;;;;18.78;100.00;100364.00;6189658;23;20041;-77
2023/07/27 10:46:35;;;;;;;1.55;1.48;;;;;;;18.84;100.00;100361.94;6189017;23;20502;-77
2023/07/27 10:49:16;;;;;;;1.33;1.33;;;;;;;18.82;100.00;100367.13;6189681;23;20018;-76
2023/07/27 10:51:55;;;;;;;1.50;1.40;;;;;;;18.81;100.00;100364.94;6189854;23;20447;-75
2023/07/27 10:54:24;;;;;;;1.30;1.20;;;;;;;18.74;100.00;100374.31;6189088;23;20017;-76
2023/07/27 10:56:51;;;;;;;1.05;1.05;;;;;;;18.71;100.00;100374.59;6189313;23;20101;-76
2023/07/27 10:59:18;;;;;;;0.93;0.93;;;;;;;18.66;100.00;100368.03;6189246;23;20017;-77
2023/07/27 11:01:47;;;;;;;0.85;0.85;;;;;;;18.75;100.00;100366.97;6189686;23;20041;-78
2023/07/27 11:04:14;;;;;;;0.70;0.70;;;;;;;18.82;100.00;100377.19;6189648;23;20052;-77
2023/07/27 11:06:45;;;;;;;1.00;1.00;;;;;;;18.85;100.00;100366.13;6162582;23;20491;-78
2023/07/27 11:09:16;;;;;;;2.05;0.80;;;;;;;18.86;100.00;100364.16;6163199;23;20333;-79
2023/07/27 11:11:43;;;;;;;0.70;0.70;;;;;;;18.96;100.00;100371.41;6188811;23;20018;-79
2023/07/27 11:14:10;;;;;;;0.80;0.80;;;;;;;19.00;100.00;100363.03;6189754;23;20021;-77
2023/07/27 11:16:37;;;;;;;0.65;0.65;;;;;;;19.01;100.00;100361.06;6188458;23;20432;-78
2023/07/27 11:19:07;;;;;;;0.80;0.80;;;;;;;19.10;100.00;100358.75;6189765;23;20021;-79
2023/07/27 11:21:38;;;;;;;0.70;0.70;;;;;;;19.19;100.00;100366.47;6188623;23;20022;-77
2023/07/27 11:24:06;;;;;;;0.80;0.80;;;;;;;19.14;100.00;100364.59;6188799;23;20025;-77